Donald, Georgia
Current Conditions -  °F | °C
As of 3:58 PM on Saturday 22 Nov 2014 (Local Time) from KLHW Reporting Station
Overcast Overcast  
Wind Chill: 65°   Ceiling: 5500
Heat Index: 65°   Visibility: 10mi
Dew Point: 51°   Wind: 12mph
Humidity: 62%   Direction: 80°E
Pressure: 30.29"   Gusts: NA
Location:  31.755°N, 81.7451°W
Report Text: KLHW 222058Z AUTO 08010KT 10SM BKN055 OVC120 18/11 A3029 RMK AO2 SLP260 T01810108 57019
Loading
Personal Weather Stations






























Interactive Weather Map New forecast layout! Learn more

10-Day Weather Forecast

Advertisements
Track Severe Weather on mobile